Main page
METAR-TAF:

METAR-TAF

Airports :

Islay Airport

Islay, Scotland

latitude: 55-40-55N, longitude: 006-15-24W, elevation: 16 m

Current weather observation

The report was made 41 minutes ago, at 23:50 UTC
Wind 24 kt from the West/Southwest
Temperature 5°C
Humidity 87%
Pressure 1004 hPa
Visibility 10 km or more

METAR: EGPI 172350Z AUTO 24024KT 9999 FEW035/// 05/03 Q1004 RERA

Time: 00:31 (00:31 UTC)

Forecast

The report was made 10 hours and 31 minutes ago, at 14:00 UTC
Forecast valid from 17 at 15 UTC to 17 at 19 UTC
Wind 20 kt from the West/Southwest with gusts up to 30 kt
Visibility 10 km or more
Scattered clouds at a height of 2000 ft
Temporary
from 17 at 15 UTC to 17 at 19 UTC
Wind 28 kt from the West with gusts up to 40 kt
Visibility: 6000 m
Broken clouds at a height of 1200 ft, Cumulonimbus.
rain showers, small hail or snow pellets

TAF: EGPI 171400Z 1715/1719 25020G30KT 9999 SCT020 TEMPO 1715/1719 26028G40KT 6000 SHRAGS BKN012CB

Weather observations and forecasts of more than 4000 airports (METAR and TAF reports).

The available stations are represented by yellow and red dots on the map.

Hover mouse over dot to see the name of the station.

Then click to see weather observations and forecasts.

To change the map : click on the green buttons with a black cross to zoom in, on the green button with a dash to zoom out, or on the green arrows for adjacent maps.


METAR-TAF: